Time;durP1;ratioP1;P1;durP2;ratioP2;P2;SDS_P1;SDS_P2;PMS_P1;PMS_P2;Temp;Humidity;BMP_temperature;BMP_pressure;BME280_temperature;BME280_humidity;BME280_pressure;Samples;Min_cycle;Max_cycle;Signal;HPM_P1;HPM_P2
2021/08/21 00:00:44;;;;;;;7.85;3.22;;;589.10;1254.40;;;;;;5094733;28;20051;-72
2021/08/21 00:03:10;;;;;;;10.52;3.90;;;589.10;1254.40;;;;;;5094612;28;20028;-72
2021/08/21 00:05:36;;;;;;;10.48;3.50;;;589.10;1280.00;;;;;;5094596;28;20461;-73
2021/08/21 00:08:04;;;;;;;14.48;3.83;;;589.00;1280.00;;;;;;5093235;28;20035;-72
2021/08/21 00:10:32;;;;;;;9.57;3.78;;;589.00;1280.00;;;;;;5093285;28;20357;-73
2021/08/21 00:12:57;;;;;;;12.25;3.60;;;588.90;1280.00;;;;;;5092994;28;20444;-73
2021/08/21 00:15:24;;;;;;;8.73;3.45;;;588.90;1280.00;;;;;;5094311;28;20079;-73
2021/08/21 00:17:50;;;;;;;9.55;3.47;;;588.80;1305.60;;;;;;5093193;28;20024;-74
2021/08/21 00:20:16;;;;;;;7.88;3.70;;;588.80;1305.60;;;;;;5093156;28;20073;-72
2021/08/21 00:22:42;;;;;;;9.25;3.72;;;588.80;1305.60;;;;;;5093071;28;20036;-72
2021/08/21 00:25:09;;;;;;;7.10;3.80;;;564.10;1305.60;;;;;;5094247;28;20099;-74
2021/08/21 00:27:35;;;;;;;9.02;3.90;;;588.90;1305.60;;;;;;5092864;28;20426;-73
2021/08/21 00:30:01;;;;;;;10.73;3.95;;;564.10;1305.60;;;;;;5094196;28;20107;-73
2021/08/21 00:32:27;;;;;;;10.15;3.83;;;564.10;1305.60;;;;;;5092909;28;20028;-73
2021/08/21 00:34:53;;;;;;;5.93;3.70;;;564.10;1305.60;;;;;;5094125;28;20024;-72
2021/08/21 00:37:19;;;;;;;8.32;3.90;;;564.10;1305.60;;;;;;5092759;28;20024;-72
2021/08/21 00:39:44;;;;;;;13.60;4.03;;;564.10;1331.20;;;;;;5094007;28;20024;-73
2021/08/21 00:42:10;;;;;;;11.30;4.28;;;564.00;1305.60;;;;;;5093050;28;20476;-73
2021/08/21 00:44:40;;;;;;;8.65;4.43;;;564.00;1331.20;;;;;;5093909;28;20137;-73
2021/08/21 00:47:09;;;;;;;12.02;4.03;;;564.00;1331.20;;;;;;5093861;28;20465;-73
2021/08/21 00:49:37;;;;;;;10.50;3.92;;;564.00;1331.20;;;;;;5093897;28;20024;-74
2021/08/21 00:52:05;;;;;;;15.63;4.30;;;564.00;1331.20;;;;;;5093879;28;20023;-74
2021/08/21 00:54:32;;;;;;;20.63;4.60;;;563.90;1331.20;;;;;;5093489;28;20028;-73
2021/08/21 00:57:03;;;;;;;11.63;4.13;;;563.90;1331.20;;;;;;5092512;28;20050;-73
2021/08/21 00:59:32;;;;;;;9.43;3.65;;;563.80;1331.20;;;;;;5093805;28;20111;-74
2021/08/21 01:01:59;;;;;;;8.95;3.80;;;563.80;1331.20;;;;;;5094016;28;20027;-73
2021/08/21 01:04:24;;;;;;;7.75;4.10;;;563.80;1331.20;;;;;;5093742;28;20020;-73
2021/08/21 01:06:50;;;;;;;9.02;3.95;;;563.80;1356.80;;;;;;5093604;28;20525;-74
2021/08/21 01:09:16;;;;;;;9.93;3.97;;;563.70;1356.80;;;;;;5093637;28;20028;-73
2021/08/21 01:11:42;;;;;;;9.00;4.13;;;563.70;1356.80;;;;;;5093840;28;20016;-73
2021/08/21 01:14:08;;;;;;;9.60;4.05;;;563.70;1356.80;;;;;;5093303;28;20433;-74
2021/08/21 01:16:35;;;;;;;8.13;3.90;;;563.70;1356.80;;;;;;5093446;28;20013;-73
2021/08/21 01:19:03;;;;;;;8.13;3.97;;;563.70;1356.80;;;;;;5093565;28;20033;-73
2021/08/21 01:21:28;;;;;;;13.82;4.25;;;563.70;1356.80;;;;;;5093518;28;20101;-74
2021/08/21 01:23:54;;;;;;;6.82;3.60;;;563.70;1356.80;;;;;;5093467;28;20472;-72
2021/08/21 01:26:20;;;;;;;13.13;4.22;;;563.70;1356.80;;;;;;5093461;28;20020;-72
2021/08/21 01:28:46;;;;;;;8.85;4.20;;;563.60;1382.40;;;;;;5092089;28;20141;-73
2021/08/21 01:31:12;;;;;;;12.35;4.68;;;563.60;1382.40;;;;;;5093430;28;20144;-73
2021/08/21 01:33:39;;;;;;;8.30;4.20;;;563.60;1382.40;;;;;;5093709;28;20032;-73
2021/08/21 01:36:05;;;;;;;12.52;3.95;;;563.50;1408.00;;;;;;5093312;28;20107;-72
2021/08/21 01:38:31;;;;;;;6.82;4.18;;;563.50;1408.00;;;;;;5093341;28;20047;-72
2021/08/21 01:40:57;;;;;;;11.25;4.53;;;563.50;1408.00;;;;;;5093538;28;20461;-73
2021/08/21 01:43:23;;;;;;;9.23;4.32;;;563.50;1433.60;;;;;;5093300;28;20055;-74
2021/08/21 01:45:50;;;;;;;15.68;4.63;;;563.50;1433.60;;;;;;5093236;28;20043;-74
2021/08/21 01:48:18;;;;;;;6.78;4.22;;;563.50;1459.20;;;;;;5093233;28;20081;-73
2021/08/21 01:50:46;;;;;;;10.57;4.03;;;563.40;1433.60;;;;;;5093229;28;20033;-75
2021/08/21 01:53:16;;;;;;;9.45;4.35;;;563.40;1459.20;;;;;;5093278;28;20483;-75
2021/08/21 01:55:43;;;;;;;12.93;5.32;;;563.30;1459.20;;;;;;5093513;28;20099;-75
2021/08/21 01:58:16;;;;;;;16.77;5.45;;;563.30;1459.20;;;;;;5093239;28;20028;-73
2021/08/21 02:00:42;;;;;;;12.18;6.43;;;563.30;1459.20;;;;;;5093230;28;20027;-74
2021/08/21 02:03:08;;;;;;;10.63;5.07;;;563.20;1459.20;;;;;;5093405;28;20464;-73
2021/08/21 02:05:34;;;;;;;13.52;5.57;;;563.30;1459.20;;;;;;5093096;28;20021;-75
2021/08/21 02:08:00;;;;;;;16.13;5.18;;;563.30;1484.80;;;;;;5096498;28;20093;-74
2021/08/21 02:10:26;;;;;;;11.73;4.63;;;563.20;1459.20;;;;;;5097014;28;20031;-74
2021/08/21 02:12:52;;;;;;;11.45;4.22;;;563.20;1459.20;;;;;;5096928;28;20028;-75
2021/08/21 02:15:17;;;;;;;12.77;4.47;;;563.20;1433.60;;;;;;5096619;28;20090;-74
2021/08/21 02:17:43;;;;;;;9.57;4.38;;;563.20;1433.60;;;;;;5096673;28;20408;-73
2021/08/21 02:20:14;;;;;;;11.07;4.25;;;563.20;1433.60;;;;;;5096855;28;20018;-74
2021/08/21 02:22:41;;;;;;;9.10;4.03;;;563.20;1433.60;;;;;;5096886;28;20017;-73
2021/08/21 02:25:09;;;;;;;8.75;4.07;;;563.20;1433.60;;;;;;5096608;28;20021;-74
2021/08/21 02:27:45;;;;;;;6.60;3.80;;;563.20;1433.60;;;;;;5096516;28;20101;-73
2021/08/21 02:30:12;;;;;;;7.05;3.75;;;563.20;1433.60;;;;;;5096806;28;20461;-74
2021/08/21 02:32:38;;;;;;;8.32;3.78;;;563.20;1433.60;;;;;;5096819;28;20381;-74
2021/08/21 02:35:04;;;;;;;15.27;4.10;;;563.20;1433.60;;;;;;5096359;28;20016;-74
2021/08/21 02:37:31;;;;;;;11.48;4.22;;;538.50;1408.00;;;;;;5096236;28;20440;-75
2021/08/21 02:39:57;;;;;;;11.13;3.90;;;538.50;1408.00;;;;;;5096220;28;20393;-73
2021/08/21 02:42:23;;;;;;;7.78;3.75;;;538.50;1408.00;;;;;;5096139;28;20020;-74
2021/08/21 02:44:49;;;;;;;8.02;4.43;;;538.40;1408.00;;;;;;5096431;28;20073;-74
2021/08/21 02:47:15;;;;;;;6.97;4.38;;;538.50;1408.00;;;;;;5096108;28;20039;-75
2021/08/21 02:49:40;;;;;;;7.57;3.90;;;538.40;1408.00;;;;;;5094780;28;20101;-75
2021/08/21 02:52:06;;;;;;;12.50;4.20;;;538.40;1408.00;;;;;;5095899;28;20016;-74
2021/08/21 02:54:32;;;;;;;9.00;4.18;;;538.40;1408.00;;;;;;5095912;28;20028;-73
2021/08/21 02:56:58;;;;;;;12.30;4.03;;;538.40;1408.00;;;;;;5094507;28;20039;-72
2021/08/21 02:59:24;;;;;;;10.10;4.57;;;538.30;1408.00;;;;;;5095779;28;20028;-72
2021/08/21 03:01:50;;;;;;;9.98;4.20;;;538.30;1408.00;;;;;;5095792;28;20020;-72
2021/08/21 03:04:15;;;;;;;13.65;5.75;;;538.40;1408.00;;;;;;5095938;28;20039;-74
2021/08/21 03:06:41;;;;;;;11.85;4.35;;;538.30;1408.00;;;;;;5095909;28;20049;-73
2021/08/21 03:09:07;;;;;;;11.60;4.40;;;538.30;1408.00;;;;;;5095513;28;20516;-72
2021/08/21 03:11:33;;;;;;;19.75;5.45;;;538.30;1408.00;;;;;;5094318;28;20416;-73
2021/08/21 03:13:59;;;;;;;42.85;5.60;;;538.30;1433.60;;;;;;5093940;28;20048;-72
2021/08/21 03:16:25;;;;;;;10.40;3.90;;;538.30;1408.00;;;;;;5095534;28;20020;-73
2021/08/21 03:18:51;;;;;;;7.57;3.85;;;538.30;1408.00;;;;;;5095145;28;20409;-72
2021/08/21 03:21:17;;;;;;;16.05;4.60;;;538.30;1433.60;;;;;;5095335;28;20097;-74
2021/08/21 03:23:43;;;;;;;12.00;4.03;;;538.30;1433.60;;;;;;5094077;28;20028;-74
2021/08/21 03:26:10;;;;;;;13.98;3.83;;;538.30;1433.60;;;;;;5095270;28;20384;-75
2021/08/21 03:28:36;;;;;;;9.73;4.35;;;538.20;1433.60;;;;;;5095145;28;20028;-73
2021/08/21 03:31:02;;;;;;;11.38;4.45;;;538.20;1433.60;;;;;;5095180;28;20098;-73
2021/08/21 03:33:27;;;;;;;9.32;4.50;;;538.20;1433.60;;;;;;5095130;28;20108;-74
2021/08/21 03:35:53;;;;;;;10.75;4.25;;;538.20;1433.60;;;;;;5095139;28;20028;-72
2021/08/21 03:38:19;;;;;;;12.48;4.18;;;538.20;1433.60;;;;;;5095108;28;20102;-73
2021/08/21 03:40:45;;;;;;;7.03;4.05;;;538.10;1459.20;;;;;;5094944;28;20020;-73
2021/08/21 03:43:11;;;;;;;12.10;4.57;;;538.10;1459.20;;;;;;5094910;28;20526;-73
2021/08/21 03:45:40;;;;;;;6.65;4.32;;;538.00;1459.20;;;;;;5094837;28;20032;-73
2021/08/21 03:48:08;;;;;;;13.68;4.90;;;538.00;1459.20;;;;;;5094920;28;20035;-73
2021/08/21 03:50:34;;;;;;;12.63;4.40;;;538.00;1459.20;;;;;;5095210;28;20024;-72
2021/08/21 03:53:00;;;;;;;14.60;5.18;;;537.90;1484.80;;;;;;5093646;28;20055;-72
2021/08/21 03:55:26;;;;;;;16.33;5.47;;;537.80;1484.80;;;;;;5095054;28;20020;-74
2021/08/21 03:57:52;;;;;;;10.45;4.68;;;537.80;1484.80;;;;;;5094871;28;20077;-73
2021/08/21 04:00:19;;;;;;;16.73;5.68;;;537.80;1484.80;;;;;;5094777;28;20061;-73
2021/08/21 04:02:45;;;;;;;37.30;6.65;;;537.80;1484.80;;;;;;5094847;28;20052;-76
2021/08/21 04:05:11;;;;;;;13.68;4.68;;;537.80;1484.80;;;;;;5094674;28;20530;-75
2021/08/21 04:07:36;;;;;;;14.43;5.00;;;537.80;1484.80;;;;;;5094599;28;20365;-73
2021/08/21 04:10:04;;;;;;;13.80;4.80;;;537.80;1484.80;;;;;;5094582;28;20060;-73
2021/08/21 04:12:30;;;;;;;12.07;4.75;;;537.80;1484.80;;;;;;5094862;28;20407;-73
2021/08/21 04:14:56;;;;;;;11.88;4.30;;;537.80;1510.40;;;;;;5094379;28;20052;-73
2021/08/21 04:17:23;;;;;;;13.88;4.85;;;537.80;1484.80;;;;;;5094529;28;20110;-72
2021/08/21 04:19:49;;;;;;;11.27;4.95;;;537.80;1484.80;;;;;;5094472;28;20468;-73
2021/08/21 04:22:15;;;;;;;17.23;6.15;;;537.80;1484.80;;;;;;5094413;28;20153;-75
2021/08/21 04:24:41;;;;;;;16.85;5.32;;;537.90;1484.80;;;;;;5094355;28;20056;-74
2021/08/21 04:27:07;;;;;;;10.88;4.95;;;537.90;1484.80;;;;;;5092929;28;20380;-73
2021/08/21 04:29:33;;;;;;;14.35;5.63;;;537.90;1484.80;;;;;;5093585;28;20035;-73
2021/08/21 04:31:59;;;;;;;12.63;5.50;;;537.80;1484.80;;;;;;5094221;28;20024;-75
2021/08/21 04:34:25;;;;;;;12.80;4.72;;;537.80;1484.80;;;;;;5092912;28;20392;-74
2021/08/21 04:36:51;;;;;;;24.08;5.85;;;537.80;1484.80;;;;;;5094143;28;20453;-74
2021/08/21 04:39:16;;;;;;;17.70;5.13;;;537.80;1484.80;;;;;;5093636;28;20033;-75
2021/08/21 04:41:42;;;;;;;21.73;6.10;;;537.80;1484.80;;;;;;5094315;28;20024;-75
2021/08/21 04:44:08;;;;;;;18.15;5.32;;;537.80;1484.80;;;;;;5093975;28;20103;-75
2021/08/21 04:46:35;;;;;;;12.15;5.43;;;537.80;1484.80;;;;;;5092703;28;20076;-74
2021/08/21 04:49:01;;;;;;;13.20;5.68;;;537.80;1484.80;;;;;;5094117;28;20036;-73
2021/08/21 04:51:27;;;;;;;19.95;6.82;;;537.80;1484.80;;;;;;5094117;28;20017;-73
2021/08/21 04:53:53;;;;;;;19.33;8.40;;;537.80;1484.80;;;;;;5093883;28;20388;-73
2021/08/21 04:56:19;;;;;;;26.52;12.23;;;537.90;1484.80;;;;;;5092501;28;20034;-74
2021/08/21 04:58:45;;;;;;;31.80;17.48;;;537.90;1484.80;;;;;;5093826;28;20020;-73
2021/08/21 05:01:11;;;;;;;26.08;14.02;;;537.90;1484.80;;;;;;5094058;28;20023;-73
2021/08/21 05:03:37;;;;;;;25.27;10.77;;;538.00;1459.20;;;;;;5093709;28;20050;-72
2021/08/21 05:06:03;;;;;;;15.30;8.70;;;538.00;1459.20;;;;;;5093697;28;20024;-72
2021/08/21 05:08:29;;;;;;;12.88;7.65;;;538.00;1459.20;;;;;;5092331;28;20028;-73
2021/08/21 05:10:55;;;;;;;15.32;6.45;;;538.00;1484.80;;;;;;5092357;28;20106;-73
2021/08/21 05:13:22;;;;;;;14.25;5.40;;;538.10;1484.80;;;;;;5093934;28;20016;-72
2021/08/21 05:15:48;;;;;;;15.25;6.32;;;538.10;1484.80;;;;;;5093917;28;20507;-73
2021/08/21 05:18:15;;;;;;;13.45;7.15;;;538.10;1484.80;;;;;;5092291;28;20416;-74
2021/08/21 05:20:50;;;;;;;22.98;10.70;;;538.10;1459.20;;;;;;5092219;28;20024;-73
2021/08/21 05:23:16;;;;;;;13.50;6.68;;;538.10;1459.20;;;;;;5092238;28;20035;-74
2021/08/21 05:25:46;;;;;;;14.88;6.03;;;538.10;1459.20;;;;;;5093446;28;20052;-73
2021/08/21 05:28:13;;;;;;;11.25;5.63;;;538.20;1459.20;;;;;;5093652;28;20032;-73
2021/08/21 05:30:41;;;;;;;8.88;5.13;;;538.20;1484.80;;;;;;5093441;28;20024;-73
2021/08/21 05:33:12;;;;;;;10.50;5.10;;;538.20;1484.80;;;;;;5093424;28;20028;-73
2021/08/21 05:35:38;;;;;;;9.02;5.28;;;538.20;1484.80;;;;;;5093749;28;20026;-75
2021/08/21 05:38:05;;;;;;;11.98;6.00;;;538.20;1484.80;;;;;;5093468;28;20507;-74
2021/08/21 05:40:32;;;;;;;9.98;5.22;;;538.20;1484.80;;;;;;5093257;28;20024;-73
2021/08/21 05:42:59;;;;;;;10.55;5.57;;;538.30;1484.80;;;;;;5097406;28;20028;-73
2021/08/21 05:45:25;;;;;;;9.70;5.43;;;538.20;1510.40;;;;;;5097394;28;20021;-74
2021/08/21 05:47:53;;;;;;;11.57;5.07;;;538.40;1484.80;;;;;;5097312;28;20050;-74
2021/08/21 05:50:19;;;;;;;11.38;5.72;;;538.40;1484.80;;;;;;5097282;28;20073;-74
2021/08/21 05:52:46;;;;;;;12.35;5.28;;;538.40;1510.40;;;;;;5095984;28;20025;-73
2021/08/21 05:55:12;;;;;;;12.93;5.68;;;538.50;1484.80;;;;;;5095909;28;20123;-73
2021/08/21 05:57:38;;;;;;;12.73;5.47;;;563.20;1510.40;;;;;;5097197;28;20016;-72
2021/08/21 06:00:05;;;;;;;15.48;5.57;;;563.20;1510.40;;;;;;5095829;28;20023;-73
2021/08/21 06:02:31;;;;;;;17.52;5.93;;;563.30;1484.80;;;;;;5097064;28;20107;-74
2021/08/21 06:04:57;;;;;;;17.27;6.35;;;563.30;1510.40;;;;;;5096974;28;20094;-74
2021/08/21 06:07:23;;;;;;;13.40;5.53;;;563.20;1536.00;;;;;;5095591;28;20388;-72
2021/08/21 06:09:49;;;;;;;15.82;5.80;;;563.30;1536.00;;;;;;5096941;28;20028;-74
2021/08/21 06:12:17;;;;;;;18.63;5.57;;;563.30;1561.60;;;;;;5096894;28;20020;-73
2021/08/21 06:14:44;;;;;;;22.88;7.88;;;563.30;1536.00;;;;;;5096630;28;20048;-73
2021/08/21 06:17:10;;;;;;;24.30;6.80;;;563.30;1561.60;;;;;;5095564;28;20020;-74
2021/08/21 06:19:36;;;;;;;13.25;6.05;;;563.40;1561.60;;;;;;5096846;28;20024;-74
2021/08/21 06:22:04;;;;;;;27.75;7.53;;;563.50;1536.00;;;;;;5096859;28;20020;-74
2021/08/21 06:24:30;;;;;;;13.93;6.18;;;563.50;1536.00;;;;;;5097031;28;20110;-74
2021/08/21 06:26:56;;;;;;;16.33;6.05;;;563.60;1561.60;;;;;;5096607;28;20048;-73
2021/08/21 06:29:22;;;;;;;14.98;5.88;;;563.60;1536.00;;;;;;5096530;28;20512;-73
2021/08/21 06:31:47;;;;;;;14.18;5.55;;;563.70;1561.60;;;;;;5096536;28;20028;-74
2021/08/21 06:34:13;;;;;;;14.43;6.10;;;563.70;1536.00;;;;;;5096530;28;20042;-74
2021/08/21 06:36:39;;;;;;;10.68;5.30;;;563.90;1536.00;;;;;;5096565;28;20472;-73
2021/08/21 06:39:05;;;;;;;11.85;5.22;;;589.30;1459.20;;;;;;5096278;28;20117;-74
2021/08/21 06:41:31;;;;;;;10.40;6.05;;;589.70;1408.00;;;;;;5095888;28;20085;-74
2021/08/21 06:43:57;;;;;;;12.73;5.30;;;614.70;1382.40;;;;;;5096038;28;21196;-74
2021/08/21 06:46:23;;;;;;;12.25;5.15;;;615.00;1356.80;;;;;;5093063;28;20020;-74
2021/08/21 06:48:49;;;;;;;14.98;5.75;;;615.10;1331.20;;;;;;5095587;28;20024;-74
2021/08/21 06:51:15;;;;;;;9.70;4.93;;;615.00;1331.20;;;;;;5095631;28;20024;-74
2021/08/21 06:53:40;;;;;;;11.77;4.68;;;615.00;1331.20;;;;;;5094890;28;20144;-74
2021/08/21 06:56:08;;;;;;;10.82;4.22;;;614.90;1305.60;;;;;;5094285;28;20074;-74
2021/08/21 06:58:34;;;;;;;9.93;4.10;;;614.90;1305.60;;;;;;5095489;28;20472;-74
2021/08/21 07:01:00;;;;;;;12.70;4.18;;;615.00;1305.60;;;;;;5095377;28;20013;-74
2021/08/21 07:03:26;;;;;;;8.45;4.15;;;614.90;1305.60;;;;;;5095469;28;20020;-74
2021/08/21 07:05:51;;;;;;;10.05;3.80;;;615.00;1305.60;;;;;;5095348;28;20396;-74
2021/08/21 07:08:17;;;;;;;14.55;4.55;;;615.10;1331.20;;;;;;5094130;28;20024;-74
2021/08/21 07:10:44;;;;;;;10.07;4.10;;;615.10;1305.60;;;;;;5092713;28;20020;-74
2021/08/21 07:13:10;;;;;;;7.63;3.28;;;615.10;1331.20;;;;;;5093948;28;20031;-74
2021/08/21 07:15:36;;;;;;;11.02;4.28;;;615.20;1305.60;;;;;;5094889;28;20040;-73
2021/08/21 07:18:03;;;;;;;17.55;3.60;;;615.20;1305.60;;;;;;5095090;28;20107;-74
2021/08/21 07:20:29;;;;;;;12.40;3.78;;;615.30;1331.20;;;;;;5095119;28;20016;-73
2021/08/21 07:22:54;;;;;;;7.78;3.55;;;615.30;1280.00;;;;;;5095049;28;20061;-76
2021/08/21 07:25:20;;;;;;;5.28;2.85;;;640.00;1280.00;;;;;;5093657;28;20115;-74
2021/08/21 07:27:46;;;;;;;5.25;2.90;;;640.10;1254.40;;;;;;5095093;28;20028;-74
2021/08/21 07:30:12;;;;;;;5.70;3.08;;;640.10;1280.00;;;;;;5094216;28;20016;-74
2021/08/21 07:32:39;;;;;;;7.70;2.80;;;640.20;1254.40;;;;;;5095358;28;20026;-75
2021/08/21 07:35:05;;;;;;;5.10;2.67;;;640.20;1254.40;;;;;;5093493;28;20020;-85
2021/08/21 07:37:31;;;;;;;5.45;2.50;;;640.20;1254.40;;;;;;5093249;28;20028;-74
2021/08/21 07:39:57;;;;;;;4.85;2.60;;;640.30;1305.60;;;;;;5094751;28;20023;-74
2021/08/21 07:42:23;;;;;;;7.43;2.88;;;640.40;1254.40;;;;;;5094722;28;20015;-75
2021/08/21 07:44:49;;;;;;;7.20;2.90;;;640.50;1280.00;;;;;;5093477;28;20445;-73
2021/08/21 07:47:15;;;;;;;9.73;2.90;;;640.40;1254.40;;;;;;5095134;28;20380;-72
2021/08/21 07:49:41;;;;;;;17.75;3.50;;;640.60;1228.80;;;;;;5094927;28;20093;-73
2021/08/21 07:52:07;;;;;;;14.95;2.80;;;640.60;1228.80;;;;;;5094780;28;20024;-74
2021/08/21 07:54:33;;;;;;;11.98;2.85;;;640.70;1203.20;;;;;;5095088;28;20027;-73
2021/08/21 07:56:59;;;;;;;26.60;3.58;;;640.70;1177.60;;;;;;5094706;28;20088;-73
2021/08/21 07:59:25;;;;;;;14.13;2.90;;;640.80;1203.20;;;;;;5094680;28;20386;-74
2021/08/21 08:01:51;;;;;;;5.60;2.90;;;640.80;1203.20;;;;;;5094594;28;20028;-73
2021/08/21 08:04:16;;;;;;;5.88;2.60;;;640.80;1152.00;;;;;;5093614;28;20020;-74
2021/08/21 08:06:42;;;;;;;5.63;2.20;;;640.90;1152.00;;;;;;5094585;28;20024;-73
2021/08/21 08:09:08;;;;;;;8.75;2.78;;;665.60;1152.00;;;;;;5094674;28;20031;-73
2021/08/21 08:11:34;;;;;;;9.07;2.58;;;665.60;1177.60;;;;;;5094433;28;20465;-74
2021/08/21 08:14:00;;;;;;;5.00;2.35;;;665.60;1203.20;;;;;;5091759;28;20085;-74
2021/08/21 08:16:26;;;;;;;14.15;3.00;;;665.70;1152.00;;;;;;5092743;28;20024;-73
2021/08/21 08:18:52;;;;;;;13.55;3.58;;;665.70;1177.60;;;;;;5093676;28;20468;-74
2021/08/21 08:21:23;;;;;;;8.02;3.05;;;665.70;1203.20;;;;;;5094249;28;20028;-71
2021/08/21 08:23:50;;;;;;;12.30;3.38;;;665.70;1254.40;;;;;;5094152;28;20056;-74
2021/08/21 08:26:17;;;;;;;7.38;2.45;;;665.70;1254.40;;;;;;5093070;28;20024;-73
2021/08/21 08:28:42;;;;;;;5.20;2.83;;;665.80;1203.20;;;;;;5094489;28;20063;-72
2021/08/21 08:31:09;;;;;;;4.22;2.60;;;665.80;1177.60;;;;;;5094276;28;20499;-74
2021/08/21 08:33:35;;;;;;;4.88;2.60;;;665.80;1177.60;;;;;;5094245;28;20016;-73
2021/08/21 08:36:01;;;;;;;5.00;2.47;;;665.80;1203.20;;;;;;5092904;28;20115;-73
2021/08/21 08:38:27;;;;;;;6.30;2.55;;;665.80;1203.20;;;;;;5094238;28;20038;-73
2021/08/21 08:40:53;;;;;;;6.60;2.47;;;665.80;1177.60;;;;;;5094009;28;20099;-74
2021/08/21 08:43:22;;;;;;;4.50;2.53;;;665.80;1254.40;;;;;;5094099;28;20032;-73
2021/08/21 08:45:49;;;;;;;9.68;3.42;;;665.90;1203.20;;;;;;5093990;28;20077;-74
2021/08/21 08:48:15;;;;;;;5.55;2.50;;;665.90;1203.20;;;;;;5092568;28;20453;-75
2021/08/21 08:50:45;;;;;;;8.32;3.70;;;666.00;1152.00;;;;;;5093921;28;20361;-75
2021/08/21 08:53:12;;;;;;;6.93;3.38;;;666.00;1177.60;;;;;;5092599;28;20115;-74
2021/08/21 08:55:39;;;;;;;5.00;3.20;;;666.00;1228.80;;;;;;5093564;28;20016;-74
2021/08/21 08:58:05;;;;;;;7.03;3.08;;;666.00;1177.60;;;;;;5092394;28;20066;-74
2021/08/21 09:00:31;;;;;;;6.10;2.88;;;666.00;1177.60;;;;;;5093491;28;20016;-73
2021/08/21 09:03:00;;;;;;;9.48;2.90;;;666.00;1228.80;;;;;;5093703;28;20027;-73
2021/08/21 09:05:28;;;;;;;13.95;3.13;;;666.10;1228.80;;;;;;5093608;28;20023;-74
2021/08/21 09:07:57;;;;;;;16.30;4.00;;;666.10;1177.60;;;;;;5093491;28;20040;-74
2021/08/21 09:10:25;;;;;;;9.25;2.80;;;666.10;1177.60;;;;;;5092648;28;20012;-74
2021/08/21 09:13:11;;;;;;;5.97;2.78;;;666.20;1177.60;;;;;;5090989;28;20525;-74
2021/08/21 09:15:51;;;;;;;4.47;2.78;;;666.20;1177.60;;;;;;5091415;28;20518;-74
2021/08/21 09:18:30;;;;;;;6.53;2.58;;;666.20;1152.00;;;;;;5093601;28;20024;-73
2021/08/21 09:21:03;;;;;;;5.20;2.80;;;666.20;1203.20;;;;;;5093585;28;20024;-73
2021/08/21 09:23:38;;;;;;;3.63;2.60;;;666.20;1203.20;;;;;;5092204;28;20031;-74
2021/08/21 09:26:07;;;;;;;5.32;3.20;;;666.30;1177.60;;;;;;5093706;28;20074;-74
2021/08/21 09:28:34;;;;;;;7.50;3.00;;;666.30;1228.80;;;;;;5092126;28;20078;-74
2021/08/21 09:31:15;;;;;;;6.30;2.78;;;666.30;1203.20;;;;;;5093497;28;20103;-74
2021/08/21 09:33:53;;;;;;;5.88;3.33;;;666.30;1203.20;;;;;;5093462;28;20089;-73
2021/08/21 09:36:33;;;;;;;8.05;2.95;;;666.30;1177.60;;;;;;5092195;28;20028;-73
2021/08/21 09:39:00;;;;;;;7.13;3.33;;;666.40;1177.60;;;;;;5093439;28;20025;-76
2021/08/21 09:41:26;;;;;;;10.43;3.00;;;666.40;1177.60;;;;;;5093451;28;20031;-75
2021/08/21 09:44:10;;;;;;;6.35;2.90;;;666.40;1203.20;;;;;;5093380;28;20020;-74
2021/08/21 09:46:37;;;;;;;6.50;2.72;;;666.40;1177.60;;;;;;5093622;28;20024;-76
2021/08/21 09:49:07;;;;;;;7.57;2.90;;;666.40;1177.60;;;;;;5093269;28;20064;-75
2021/08/21 09:51:39;;;;;;;4.85;2.80;;;666.40;1254.40;;;;;;5092000;28;20024;-74
2021/08/21 09:54:09;;;;;;;4.22;2.70;;;666.50;1177.60;;;;;;5093369;28;20036;-75
2021/08/21 09:56:37;;;;;;;5.15;3.08;;;691.20;1126.40;;;;;;5093834;28;20452;-75
2021/08/21 09:59:05;;;;;;;6.47;2.55;;;691.20;1152.00;;;;;;5093245;28;20035;-74
2021/08/21 10:01:31;;;;;;;6.38;2.72;;;691.20;1152.00;;;;;;5093193;28;20477;-75
2021/08/21 10:03:58;;;;;;;8.27;2.95;;;691.30;1152.00;;;;;;5093493;28;20373;-75
2021/08/21 10:06:24;;;;;;;5.13;2.60;;;691.30;1152.00;;;;;;5093152;28;20023;-73
2021/08/21 10:08:59;;;;;;;7.22;2.95;;;691.30;1126.40;;;;;;5092873;28;20491;-74
2021/08/21 10:11:26;;;;;;;4.03;2.45;;;691.40;1126.40;;;;;;5093147;28;20469;-73
2021/08/21 10:13:52;;;;;;;15.55;3.35;;;691.40;1126.40;;;;;;5092849;28;20119;-73
2021/08/21 10:16:19;;;;;;;8.90;3.50;;;691.40;1177.60;;;;;;5093092;28;20024;-72
2021/08/21 10:18:48;;;;;;;7.93;2.80;;;691.50;1177.60;;;;;;5093033;28;20024;-75
2021/08/21 10:21:16;;;;;;;4.07;2.95;;;691.50;1152.00;;;;;;5091232;28;20020;-75
2021/08/21 10:23:45;;;;;;;7.35;3.08;;;691.50;1126.40;;;;;;5092850;28;20468;-73
2021/08/21 10:26:16;;;;;;;6.50;2.72;;;691.50;1126.40;;;;;;5092981;28;20020;-74
2021/08/21 10:28:43;;;;;;;8.65;3.30;;;691.60;1100.80;;;;;;5095809;28;20035;-73
2021/08/21 10:31:29;;;;;;;12.38;3.70;;;691.70;1126.40;;;;;;5096632;28;20372;-73
2021/08/21 10:33:58;;;;;;;15.73;3.25;;;691.70;1152.00;;;;;;5096766;28;20028;-73
2021/08/21 10:36:53;;;;;;;6.93;3.22;;;691.80;1100.80;;;;;;5096436;28;20473;-73
2021/08/21 10:39:34;;;;;;;8.55;3.28;;;691.80;1100.80;;;;;;5096727;28;20030;-73
2021/08/21 10:42:21;;;;;;;4.88;2.70;;;691.90;1126.40;;;;;;5096433;28;20020;-73
2021/08/21 10:44:47;;;;;;;6.30;2.47;;;691.90;1100.80;;;;;;5095102;28;20152;-74
2021/08/21 10:47:32;;;;;;;4.80;2.88;;;691.90;1126.40;;;;;;5096223;28;20020;-73
2021/08/21 10:50:29;;;;;;;4.70;2.83;;;691.80;1100.80;;;;;;5096200;28;20089;-73
2021/08/21 10:52:57;;;;;;;5.88;3.05;;;691.80;1075.20;;;;;;5088287;28;20110;-74
2021/08/21 10:55:40;;;;;;;6.80;2.97;;;691.80;1075.20;;;;;;5096093;28;20030;-73
2021/08/21 10:58:15;;;;;;;6.65;2.95;;;691.70;1075.20;;;;;;5096042;28;20103;-74
2021/08/21 11:00:43;;;;;;;5.78;3.05;;;691.70;1100.80;;;;;;5096138;28;20023;-73
2021/08/21 11:03:10;;;;;;;4.20;2.78;;;691.70;1075.20;;;;;;5095902;28;20035;-75
2021/08/21 11:05:52;;;;;;;8.00;3.05;;;691.70;1100.80;;;;;;5075714;28;20052;-74
2021/08/21 11:08:25;;;;;;;5.65;3.03;;;691.70;1075.20;;;;;;5074224;28;20037;-73
2021/08/21 11:11:22;;;;;;;5.35;2.80;;;691.80;1100.80;;;;;;5075490;28;20047;-72
2021/08/21 11:14:02;;;;;;;8.00;2.90;;;691.80;1100.80;;;;;;5075220;28;20417;-73
2021/08/21 11:16:46;;;;;;;7.47;3.10;;;691.80;1075.20;;;;;;5075381;28;20029;-73
2021/08/21 11:19:15;;;;;;;2.97;2.22;;;691.90;1075.20;;;;;;5075473;28;20397;-74
2021/08/21 11:21:40;;;;;;;4.57;2.72;;;692.00;1075.20;;;;;;5075291;28;20021;-73
2021/08/21 11:24:23;;;;;;;4.22;3.00;;;692.00;1075.20;;;;;;5090927;28;20021;-74
2021/08/21 11:26:52;;;;;;;14.45;3.50;;;692.10;1075.20;;;;;;5075372;28;20358;-73
2021/08/21 11:29:18;;;;;;;12.35;3.38;;;716.80;1100.80;;;;;;5074619;28;20115;-73
2021/08/21 11:32:00;;;;;;;7.47;2.58;;;716.80;1100.80;;;;;;5090480;28;20159;-73
2021/08/21 11:34:34;;;;;;;7.00;3.10;;;716.80;1126.40;;;;;;5073554;28;20159;-74
2021/08/21 11:37:05;;;;;;;8.30;3.05;;;716.90;1075.20;;;;;;5074799;28;20021;-74
2021/08/21 11:39:31;;;;;;;9.30;2.80;;;716.90;1100.80;;;;;;5074077;28;20016;-73
2021/08/21 11:41:57;;;;;;;4.68;2.72;;;716.90;1100.80;;;;;;5074638;28;20020;-73
2021/08/21 11:44:32;;;;;;;6.03;2.63;;;716.80;1075.20;;;;;;5074799;28;20027;-73
2021/08/21 11:47:06;;;;;;;7.30;2.92;;;716.80;1100.80;;;;;;5073449;28;20031;-75
2021/08/21 11:49:41;;;;;;;5.30;3.03;;;716.80;1100.80;;;;;;5073374;28;20025;-74
2021/08/21 11:52:07;;;;;;;13.57;3.22;;;692.10;1075.20;;;;;;5073326;28;20409;-74
2021/08/21 11:54:33;;;;;;;10.73;3.10;;;692.10;1075.20;;;;;;5093283;28;20032;-73
2021/08/21 11:57:00;;;;;;;4.97;3.10;;;692.10;1075.20;;;;;;5094629;28;20553;-76
2021/08/21 11:59:26;;;;;;;6.50;3.22;;;692.10;1049.60;;;;;;5094878;28;20575;-73
2021/08/21 12:02:05;;;;;;;4.15;2.50;;;692.00;1075.20;;;;;;5092949;28;20024;-72
2021/08/21 12:04:33;;;;;;;4.35;2.65;;;692.10;1075.20;;;;;;5093200;28;20020;-74
2021/08/21 12:06:59;;;;;;;6.32;2.55;;;692.10;1075.20;;;;;;5094202;28;20032;-73
2021/08/21 12:09:25;;;;;;;7.32;2.78;;;716.80;1100.80;;;;;;5094108;28;20116;-74
2021/08/21 12:11:52;;;;;;;6.10;3.00;;;716.80;1075.20;;;;;;5092910;28;20362;-74
2021/08/21 12:14:20;;;;;;;5.35;2.90;;;716.80;1126.40;;;;;;5092612;28;20040;-73
2021/08/21 12:16:48;;;;;;;7.05;2.80;;;716.90;1100.80;;;;;;5094207;28;20012;-73